sensor_id;sensor_type;location;lat;lon;timestamp;temperature;humidity
18777;DHT22;9517;51.174;4.160;2024-03-29T00:00:02;10.10;99.90
18777;DHT22;9517;51.174;4.160;2024-03-29T00:02:29;10.00;99.90
18777;DHT22;9517;51.174;4.160;2024-03-29T00:04:55;10.00;99.90
18777;DHT22;9517;51.174;4.160;2024-03-29T00:07:23;10.00;99.90
18777;DHT22;9517;51.174;4.160;2024-03-29T00:09:49;10.00;99.90
18777;DHT22;9517;51.174;4.160;2024-03-29T00:12:15;10.10;99.90
18777;DHT22;9517;51.174;4.160;2024-03-29T00:14:41;10.10;99.90
18777;DHT22;9517;51.174;4.160;2024-03-29T00:17:09;10.10;99.90
18777;DHT22;9517;51.174;4.160;2024-03-29T00:19:35;10.20;99.90
18777;DHT22;9517;51.174;4.160;2024-03-29T00:22:02;10.10;99.90
18777;DHT22;9517;51.174;4.160;2024-03-29T00:24:28;10.20;99.90
18777;DHT22;9517;51.174;4.160;2024-03-29T00:26:54;10.20;99.90
18777;DHT22;9517;51.174;4.160;2024-03-29T00:29:27;10.10;99.90
18777;DHT22;9517;51.174;4.160;2024-03-29T00:31:53;10.10;99.90
18777;DHT22;9517;51.174;4.160;2024-03-29T00:34:20;10.10;99.90
18777;DHT22;9517;51.174;4.160;2024-03-29T00:36:47;10.20;99.90
18777;DHT22;9517;51.174;4.160;2024-03-29T00:39:13;10.20;99.90
18777;DHT22;9517;51.174;4.160;2024-03-29T00:41:39;10.10;99.90
18777;DHT22;9517;51.174;4.160;2024-03-29T00:44:05;10.20;99.90
18777;DHT22;9517;51.174;4.160;2024-03-29T00:46:31;10.10;99.90
18777;DHT22;9517;51.174;4.160;2024-03-29T00:48:57;10.10;99.90
18777;DHT22;9517;51.174;4.160;2024-03-29T00:51:25;10.10;99.90
18777;DHT22;9517;51.174;4.160;2024-03-29T00:53:51;10.00;99.90
18777;DHT22;9517;51.174;4.160;2024-03-29T00:56:18;10.10;99.90
18777;DHT22;9517;51.174;4.160;2024-03-29T00:58:44;10.10;99.90
18777;DHT22;9517;51.174;4.160;2024-03-29T01:01:11;10.00;99.90
18777;DHT22;9517;51.174;4.160;2024-03-29T01:03:37;10.00;99.90
18777;DHT22;9517;51.174;4.160;2024-03-29T01:06:05;9.90;99.90
18777;DHT22;9517;51.174;4.160;2024-03-29T01:08:32;9.90;99.90
18777;DHT22;9517;51.174;4.160;2024-03-29T01:10:58;10.00;99.90
18777;DHT22;9517;51.174;4.160;2024-03-29T01:13:24;10.00;99.90
18777;DHT22;9517;51.174;4.160;2024-03-29T01:15:50;10.00;99.90
18777;DHT22;9517;51.174;4.160;2024-03-29T01:18:17;10.00;99.90
18777;DHT22;9517;51.174;4.160;2024-03-29T01:20:43;10.00;99.90
18777;DHT22;9517;51.174;4.160;2024-03-29T01:23:09;10.00;99.90
18777;DHT22;9517;51.174;4.160;2024-03-29T01:25:37;10.10;99.90
18777;DHT22;9517;51.174;4.160;2024-03-29T01:28:03;10.00;99.90
18777;DHT22;9517;51.174;4.160;2024-03-29T01:30:29;9.90;99.90
18777;DHT22;9517;51.174;4.160;2024-03-29T01:32:56;10.00;99.90
18777;DHT22;9517;51.174;4.160;2024-03-29T01:35:22;10.00;99.90
18777;DHT22;9517;51.174;4.160;2024-03-29T01:37:48;10.10;99.90
18777;DHT22;9517;51.174;4.160;2024-03-29T01:40:14;10.10;99.90
18777;DHT22;9517;51.174;4.160;2024-03-29T01:42:42;10.20;99.90
18777;DHT22;9517;51.174;4.160;2024-03-29T01:45:08;10.30;99.90
18777;DHT22;9517;51.174;4.160;2024-03-29T01:47:35;10.30;99.90
18777;DHT22;9517;51.174;4.160;2024-03-29T01:50:03;10.20;99.90
18777;DHT22;9517;51.174;4.160;2024-03-29T01:52:32;10.30;99.90
18777;DHT22;9517;51.174;4.160;2024-03-29T01:54:59;10.20;99.90
18777;DHT22;9517;51.174;4.160;2024-03-29T01:57:26;10.30;99.90
18777;DHT22;9517;51.174;4.160;2024-03-29T01:59:56;10.30;99.90
18777;DHT22;9517;51.174;4.160;2024-03-29T02:02:24;10.30;99.90
18777;DHT22;9517;51.174;4.160;2024-03-29T02:04:51;10.30;99.90
18777;DHT22;9517;51.174;4.160;2024-03-29T02:07:18;10.30;99.90
18777;DHT22;9517;51.174;4.160;2024-03-29T02:09:46;10.30;99.90
18777;DHT22;9517;51.174;4.160;2024-03-29T02:12:13;10.30;99.90
18777;DHT22;9517;51.174;4.160;2024-03-29T02:14:40;10.40;99.90
18777;DHT22;9517;51.174;4.160;2024-03-29T02:17:09;10.40;99.90
18777;DHT22;9517;51.174;4.160;2024-03-29T02:19:36;10.30;99.90
18777;DHT22;9517;51.174;4.160;2024-03-29T02:22:04;10.30;99.90
18777;DHT22;9517;51.174;4.160;2024-03-29T02:24:34;10.40;99.90
18777;DHT22;9517;51.174;4.160;2024-03-29T02:27:02;10.50;99.90
18777;DHT22;9517;51.174;4.160;2024-03-29T02:29:30;10.30;99.90
18777;DHT22;9517;51.174;4.160;2024-03-29T02:31:58;10.30;99.90
18777;DHT22;9517;51.174;4.160;2024-03-29T02:34:25;10.30;99.90
18777;DHT22;9517;51.174;4.160;2024-03-29T02:36:52;10.30;99.90
18777;DHT22;9517;51.174;4.160;2024-03-29T02:39:20;10.20;99.90
18777;DHT22;9517;51.174;4.160;2024-03-29T02:41:48;10.20;99.90
18777;DHT22;9517;51.174;4.160;2024-03-29T02:44:16;10.20;99.90
18777;DHT22;9517;51.174;4.160;2024-03-29T02:46:43;10.10;99.90
18777;DHT22;9517;51.174;4.160;2024-03-29T02:49:10;10.00;99.90
18777;DHT22;9517;51.174;4.160;2024-03-29T02:51:38;10.00;99.90
18777;DHT22;9517;51.174;4.160;2024-03-29T02:54:05;10.00;99.90
18777;DHT22;9517;51.174;4.160;2024-03-29T02:56:31;9.90;99.90
18777;DHT22;9517;51.174;4.160;2024-03-29T02:59:03;9.90;99.90
18777;DHT22;9517;51.174;4.160;2024-03-29T03:01:29;9.70;99.90
18777;DHT22;9517;51.174;4.160;2024-03-29T03:03:56;9.60;99.90
18777;DHT22;9517;51.174;4.160;2024-03-29T03:06:22;9.50;99.90
18777;DHT22;9517;51.174;4.160;2024-03-29T03:08:50;9.30;99.90
18777;DHT22;9517;51.174;4.160;2024-03-29T03:11:34;9.20;99.90
18777;DHT22;9517;51.174;4.160;2024-03-29T03:14:03;9.10;99.90
18777;DHT22;9517;51.174;4.160;2024-03-29T03:16:30;8.90;99.90
18777;DHT22;9517;51.174;4.160;2024-03-29T03:18:58;8.90;99.90
18777;DHT22;9517;51.174;4.160;2024-03-29T03:21:24;8.90;99.90
18777;DHT22;9517;51.174;4.160;2024-03-29T03:23:51;8.80;99.90
18777;DHT22;9517;51.174;4.160;2024-03-29T03:26:17;8.70;99.90
18777;DHT22;9517;51.174;4.160;2024-03-29T03:28:44;8.60;99.90
18777;DHT22;9517;51.174;4.160;2024-03-29T03:31:12;8.60;99.90
18777;DHT22;9517;51.174;4.160;2024-03-29T03:33:45;8.80;99.90
18777;DHT22;9517;51.174;4.160;2024-03-29T03:36:11;8.70;99.90
18777;DHT22;9517;51.174;4.160;2024-03-29T03:38:38;8.70;99.90
18777;DHT22;9517;51.174;4.160;2024-03-29T03:41:05;8.90;99.90
18777;DHT22;9517;51.174;4.160;2024-03-29T03:43:32;8.80;99.90
18777;DHT22;9517;51.174;4.160;2024-03-29T03:46:00;8.80;99.90
18777;DHT22;9517;51.174;4.160;2024-03-29T03:48:29;8.80;99.90
18777;DHT22;9517;51.174;4.160;2024-03-29T03:50:55;8.90;99.90
18777;DHT22;9517;51.174;4.160;2024-03-29T03:53:23;8.80;99.90
18777;DHT22;9517;51.174;4.160;2024-03-29T03:55:49;9.00;99.90
18777;DHT22;9517;51.174;4.160;2024-03-29T03:58:16;8.90;99.90
18777;DHT22;9517;51.174;4.160;2024-03-29T04:00:43;9.00;99.90
18777;DHT22;9517;51.174;4.160;2024-03-29T04:03:10;9.00;99.90
18777;DHT22;9517;51.174;4.160;2024-03-29T04:05:38;9.00;99.90
18777;DHT22;9517;51.174;4.160;2024-03-29T04:08:05;8.80;99.90
18777;DHT22;9517;51.174;4.160;2024-03-29T04:10:31;8.50;99.90
18777;DHT22;9517;51.174;4.160;2024-03-29T04:12:59;8.50;99.90
18777;DHT22;9517;51.174;4.160;2024-03-29T04:15:25;8.50;99.90
18777;DHT22;9517;51.174;4.160;2024-03-29T04:17:52;8.50;99.90
18777;DHT22;9517;51.174;4.160;2024-03-29T04:20:18;8.40;99.90
18777;DHT22;9517;51.174;4.160;2024-03-29T04:22:48;8.40;99.90
18777;DHT22;9517;51.174;4.160;2024-03-29T04:25:15;8.30;99.90
18777;DHT22;9517;51.174;4.160;2024-03-29T04:27:42;8.30;99.90
18777;DHT22;9517;51.174;4.160;2024-03-29T04:30:08;8.40;99.90
18777;DHT22;9517;51.174;4.160;2024-03-29T04:32:36;8.50;99.90
18777;DHT22;9517;51.174;4.160;2024-03-29T04:35:02;8.50;99.90
18777;DHT22;9517;51.174;4.160;2024-03-29T04:37:29;8.50;99.90
18777;DHT22;9517;51.174;4.160;2024-03-29T04:39:58;8.40;99.90
18777;DHT22;9517;51.174;4.160;2024-03-29T04:42:25;8.50;99.90
18777;DHT22;9517;51.174;4.160;2024-03-29T04:44:52;8.50;99.90
18777;DHT22;9517;51.174;4.160;2024-03-29T04:47:19;8.50;99.90
18777;DHT22;9517;51.174;4.160;2024-03-29T04:49:46;8.50;99.90
18777;DHT22;9517;51.174;4.160;2024-03-29T04:52:13;8.40;99.90
18777;DHT22;9517;51.174;4.160;2024-03-29T04:54:41;8.30;99.90
18777;DHT22;9517;51.174;4.160;2024-03-29T04:57:11;8.40;99.90
18777;DHT22;9517;51.174;4.160;2024-03-29T04:59:38;8.30;99.90
18777;DHT22;9517;51.174;4.160;2024-03-29T05:02:05;8.40;99.90
18777;DHT22;9517;51.174;4.160;2024-03-29T05:04:33;8.50;99.90
18777;DHT22;9517;51.174;4.160;2024-03-29T05:07:03;8.50;99.90
18777;DHT22;9517;51.174;4.160;2024-03-29T05:09:30;8.50;99.90
18777;DHT22;9517;51.174;4.160;2024-03-29T05:11:57;8.50;99.90
18777;DHT22;9517;51.174;4.160;2024-03-29T05:14:26;8.60;99.90
18777;DHT22;9517;51.174;4.160;2024-03-29T05:16:53;8.60;99.90
18777;DHT22;9517;51.174;4.160;2024-03-29T05:19:20;8.50;99.90
18777;DHT22;9517;51.174;4.160;2024-03-29T05:21:48;8.40;99.90
18777;DHT22;9517;51.174;4.160;2024-03-29T05:24:15;8.40;99.90
18777;DHT22;9517;51.174;4.160;2024-03-29T05:26:43;8.30;99.90
18777;DHT22;9517;51.174;4.160;2024-03-29T05:29:10;8.40;99.90
18777;DHT22;9517;51.174;4.160;2024-03-29T05:31:38;8.50;99.90
18777;DHT22;9517;51.174;4.160;2024-03-29T05:34:07;8.50;99.90
18777;DHT22;9517;51.174;4.160;2024-03-29T05:36:34;8.50;99.90
18777;DHT22;9517;51.174;4.160;2024-03-29T05:39:08;8.50;99.90
18777;DHT22;9517;51.174;4.160;2024-03-29T05:41:36;8.60;99.90
18777;DHT22;9517;51.174;4.160;2024-03-29T05:44:13;8.50;99.90
18777;DHT22;9517;51.174;4.160;2024-03-29T05:53:34;8.40;99.90
18777;DHT22;9517;51.174;4.160;2024-03-29T05:56:11;8.50;99.90
18777;DHT22;9517;51.174;4.160;2024-03-29T06:01:44;8.50;99.90
18777;DHT22;9517;51.174;4.160;2024-03-29T06:04:11;8.50;99.90
18777;DHT22;9517;51.174;4.160;2024-03-29T06:06:56;8.50;99.90
18777;DHT22;9517;51.174;4.160;2024-03-29T06:09:28;8.50;99.90
18777;DHT22;9517;51.174;4.160;2024-03-29T06:11:56;8.50;99.90
18777;DHT22;9517;51.174;4.160;2024-03-29T06:14:24;8.60;99.90
18777;DHT22;9517;51.174;4.160;2024-03-29T06:17:08;8.60;99.90
18777;DHT22;9517;51.174;4.160;2024-03-29T06:19:56;8.90;99.90
18777;DHT22;9517;51.174;4.160;2024-03-29T06:22:31;8.80;99.90
18777;DHT22;9517;51.174;4.160;2024-03-29T06:25:11;8.80;99.90
18777;DHT22;9517;51.174;4.160;2024-03-29T06:27:41;8.70;99.90
18777;DHT22;9517;51.174;4.160;2024-03-29T06:30:14;8.70;99.90
18777;DHT22;9517;51.174;4.160;2024-03-29T06:32:41;8.70;99.90
18777;DHT22;9517;51.174;4.160;2024-03-29T06:35:11;8.80;99.90
18777;DHT22;9517;51.174;4.160;2024-03-29T06:37:41;8.90;99.90
18777;DHT22;9517;51.174;4.160;2024-03-29T06:40:12;8.90;99.90
18777;DHT22;9517;51.174;4.160;2024-03-29T06:42:42;8.80;99.90
18777;DHT22;9517;51.174;4.160;2024-03-29T06:45:12;8.80;99.90
18777;DHT22;9517;51.174;4.160;2024-03-29T06:47:39;8.90;99.90
18777;DHT22;9517;51.174;4.160;2024-03-29T06:50:18;9.10;99.90
18777;DHT22;9517;51.174;4.160;2024-03-29T06:52:45;9.20;99.90
18777;DHT22;9517;51.174;4.160;2024-03-29T06:55:15;9.10;99.90
18777;DHT22;9517;51.174;4.160;2024-03-29T06:57:43;9.00;99.90
18777;DHT22;9517;51.174;4.160;2024-03-29T07:00:14;9.10;99.90
18777;DHT22;9517;51.174;4.160;2024-03-29T07:02:49;9.20;99.90
18777;DHT22;9517;51.174;4.160;2024-03-29T07:05:52;9.40;99.90
18777;DHT22;9517;51.174;4.160;2024-03-29T07:08:46;9.40;99.90
18777;DHT22;9517;51.174;4.160;2024-03-29T07:11:54;9.40;99.90
18777;DHT22;9517;51.174;4.160;2024-03-29T07:14:29;9.20;99.90
18777;DHT22;9517;51.174;4.160;2024-03-29T07:17:02;9.40;99.90
18777;DHT22;9517;51.174;4.160;2024-03-29T07:19:31;9.50;99.90
18777;DHT22;9517;51.174;4.160;2024-03-29T07:25:44;9.40;99.90
18777;DHT22;9517;51.174;4.160;2024-03-29T07:52:44;10.20;99.90
18777;DHT22;9517;51.174;4.160;2024-03-29T07:55:26;10.20;99.90
18777;DHT22;9517;51.174;4.160;2024-03-29T07:57:58;10.30;99.90
18777;DHT22;9517;51.174;4.160;2024-03-29T08:00:31;10.30;99.90
18777;DHT22;9517;51.174;4.160;2024-03-29T08:02:59;10.40;99.90
18777;DHT22;9517;51.174;4.160;2024-03-29T08:05:28;10.40;99.90
18777;DHT22;9517;51.174;4.160;2024-03-29T08:07:55;10.60;99.90
18777;DHT22;9517;51.174;4.160;2024-03-29T08:10:22;10.70;99.90
18777;DHT22;9517;51.174;4.160;2024-03-29T08:12:50;10.90;99.90
18777;DHT22;9517;51.174;4.160;2024-03-29T08:15:17;11.00;99.90
18777;DHT22;9517;51.174;4.160;2024-03-29T08:17:45;11.20;99.90
18777;DHT22;9517;51.174;4.160;2024-03-29T08:20:12;11.30;99.90
18777;DHT22;9517;51.174;4.160;2024-03-29T08:22:41;11.50;99.90
18777;DHT22;9517;51.174;4.160;2024-03-29T08:25:08;11.60;99.90
18777;DHT22;9517;51.174;4.160;2024-03-29T08:27:36;11.60;99.90
18777;DHT22;9517;51.174;4.160;2024-03-29T08:30:03;11.90;99.90
18777;DHT22;9517;51.174;4.160;2024-03-29T08:32:31;11.80;99.90
18777;DHT22;9517;51.174;4.160;2024-03-29T08:34:58;11.90;99.90
18777;DHT22;9517;51.174;4.160;2024-03-29T08:37:28;11.60;99.90
18777;DHT22;9517;51.174;4.160;2024-03-29T08:39:57;11.50;99.90
18777;DHT22;9517;51.174;4.160;2024-03-29T08:42:25;11.60;99.90
18777;DHT22;9517;51.174;4.160;2024-03-29T08:44:52;11.60;99.90
18777;DHT22;9517;51.174;4.160;2024-03-29T08:47:20;11.70;99.90
18777;DHT22;9517;51.174;4.160;2024-03-29T08:49:47;11.90;99.90
18777;DHT22;9517;51.174;4.160;2024-03-29T08:52:14;11.90;99.90
18777;DHT22;9517;51.174;4.160;2024-03-29T08:54:43;11.70;99.90
18777;DHT22;9517;51.174;4.160;2024-03-29T08:57:11;11.60;99.90
18777;DHT22;9517;51.174;4.160;2024-03-29T08:59:39;11.60;99.90
18777;DHT22;9517;51.174;4.160;2024-03-29T09:02:06;11.80;99.90
18777;DHT22;9517;51.174;4.160;2024-03-29T09:04:34;11.80;99.90
18777;DHT22;9517;51.174;4.160;2024-03-29T09:07:01;11.70;99.90
18777;DHT22;9517;51.174;4.160;2024-03-29T09:09:31;11.80;99.90
18777;DHT22;9517;51.174;4.160;2024-03-29T09:11:58;11.80;99.90
18777;DHT22;9517;51.174;4.160;2024-03-29T09:14:27;11.70;99.90
18777;DHT22;9517;51.174;4.160;2024-03-29T09:16:55;11.80;99.90
18777;DHT22;9517;51.174;4.160;2024-03-29T09:19:22;11.80;99.90
18777;DHT22;9517;51.174;4.160;2024-03-29T09:21:50;11.80;99.90
18777;DHT22;9517;51.174;4.160;2024-03-29T09:24:17;11.80;99.90
18777;DHT22;9517;51.174;4.160;2024-03-29T09:26:48;11.90;99.90
18777;DHT22;9517;51.174;4.160;2024-03-29T09:29:16;11.90;99.90
18777;DHT22;9517;51.174;4.160;2024-03-29T09:31:46;11.90;99.90
18777;DHT22;9517;51.174;4.160;2024-03-29T09:34:13;11.90;99.90
18777;DHT22;9517;51.174;4.160;2024-03-29T09:36:40;11.90;99.90
18777;DHT22;9517;51.174;4.160;2024-03-29T09:39:07;11.80;99.90
18777;DHT22;9517;51.174;4.160;2024-03-29T09:41:35;11.90;99.90
18777;DHT22;9517;51.174;4.160;2024-03-29T09:44:05;12.10;99.90
18777;DHT22;9517;51.174;4.160;2024-03-29T09:46:33;12.10;99.90
18777;DHT22;9517;51.174;4.160;2024-03-29T09:49:04;12.10;99.90
18777;DHT22;9517;51.174;4.160;2024-03-29T09:51:32;12.20;99.90
18777;DHT22;9517;51.174;4.160;2024-03-29T09:54:01;12.70;99.90
18777;DHT22;9517;51.174;4.160;2024-03-29T09:56:30;13.00;99.90
18777;DHT22;9517;51.174;4.160;2024-03-29T09:58:57;13.10;99.90
18777;DHT22;9517;51.174;4.160;2024-03-29T10:01:26;13.20;99.90
18777;DHT22;9517;51.174;4.160;2024-03-29T10:03:54;13.50;99.90
18777;DHT22;9517;51.174;4.160;2024-03-29T10:06:25;13.50;99.90
18777;DHT22;9517;51.174;4.160;2024-03-29T10:08:53;13.50;99.90
18777;DHT22;9517;51.174;4.160;2024-03-29T10:11:23;13.50;99.90
18777;DHT22;9517;51.174;4.160;2024-03-29T10:13:51;13.60;99.90
18777;DHT22;9517;51.174;4.160;2024-03-29T10:16:19;13.30;99.90
18777;DHT22;9517;51.174;4.160;2024-03-29T10:18:48;13.20;99.90
18777;DHT22;9517;51.174;4.160;2024-03-29T10:21:16;13.20;99.90
18777;DHT22;9517;51.174;4.160;2024-03-29T10:23:44;13.20;99.90
18777;DHT22;9517;51.174;4.160;2024-03-29T10:26:13;13.40;99.90
18777;DHT22;9517;51.174;4.160;2024-03-29T10:28:40;13.20;99.90
18777;DHT22;9517;51.174;4.160;2024-03-29T10:31:11;13.30;99.90
18777;DHT22;9517;51.174;4.160;2024-03-29T10:33:42;13.50;99.90
18777;DHT22;9517;51.174;4.160;2024-03-29T10:36:10;13.80;99.90
18777;DHT22;9517;51.174;4.160;2024-03-29T10:38:38;14.00;99.90
18777;DHT22;9517;51.174;4.160;2024-03-29T10:41:07;14.00;99.90
18777;DHT22;9517;51.174;4.160;2024-03-29T10:43:35;14.00;99.90
18777;DHT22;9517;51.174;4.160;2024-03-29T10:46:03;13.90;99.90
18777;DHT22;9517;51.174;4.160;2024-03-29T10:48:31;13.90;99.90
18777;DHT22;9517;51.174;4.160;2024-03-29T10:51:01;14.10;99.90
18777;DHT22;9517;51.174;4.160;2024-03-29T10:53:30;14.50;99.90
18777;DHT22;9517;51.174;4.160;2024-03-29T10:56:09;14.70;99.90
18777;DHT22;9517;51.174;4.160;2024-03-29T10:58:40;14.40;99.90
18777;DHT22;9517;51.174;4.160;2024-03-29T11:01:11;14.30;99.90
18777;DHT22;9517;51.174;4.160;2024-03-29T11:03:44;14.60;99.90
18777;DHT22;9517;51.174;4.160;2024-03-29T11:06:18;14.70;99.90
18777;DHT22;9517;51.174;4.160;2024-03-29T11:08:52;15.10;99.90
18777;DHT22;9517;51.174;4.160;2024-03-29T11:11:23;15.70;99.90
18777;DHT22;9517;51.174;4.160;2024-03-29T11:13:54;15.80;99.90
18777;DHT22;9517;51.174;4.160;2024-03-29T11:16:26;15.70;99.90
18777;DHT22;9517;51.174;4.160;2024-03-29T11:18:53;15.80;99.90
18777;DHT22;9517;51.174;4.160;2024-03-29T11:21:22;16.40;99.90
18777;DHT22;9517;51.174;4.160;2024-03-29T11:23:53;16.60;99.90
18777;DHT22;9517;51.174;4.160;2024-03-29T11:26:22;17.00;99.90
18777;DHT22;9517;51.174;4.160;2024-03-29T11:28:49;16.70;99.90
18777;DHT22;9517;51.174;4.160;2024-03-29T11:31:17;16.00;99.90
18777;DHT22;9517;51.174;4.160;2024-03-29T11:33:45;16.30;99.90
18777;DHT22;9517;51.174;4.160;2024-03-29T11:36:15;16.30;99.90
18777;DHT22;9517;51.174;4.160;2024-03-29T11:38:45;16.30;99.90
18777;DHT22;9517;51.174;4.160;2024-03-29T11:41:14;16.40;99.90
18777;DHT22;9517;51.174;4.160;2024-03-29T11:43:43;16.00;99.90
18777;DHT22;9517;51.174;4.160;2024-03-29T11:46:12;15.80;99.90
18777;DHT22;9517;51.174;4.160;2024-03-29T11:48:39;15.80;99.90
18777;DHT22;9517;51.174;4.160;2024-03-29T11:51:09;15.90;99.90
18777;DHT22;9517;51.174;4.160;2024-03-29T11:53:37;16.30;99.90
18777;DHT22;9517;51.174;4.160;2024-03-29T11:56:04;16.50;99.90
18777;DHT22;9517;51.174;4.160;2024-03-29T11:58:33;16.80;99.90
18777;DHT22;9517;51.174;4.160;2024-03-29T12:01:03;17.10;99.90
18777;DHT22;9517;51.174;4.160;2024-03-29T12:03:31;17.60;99.90
18777;DHT22;9517;51.174;4.160;2024-03-29T12:06:00;17.50;99.90
18777;DHT22;9517;51.174;4.160;2024-03-29T12:08:29;17.80;99.90
18777;DHT22;9517;51.174;4.160;2024-03-29T12:10:59;18.60;99.90
18777;DHT22;9517;51.174;4.160;2024-03-29T12:13:26;17.70;99.90
18777;DHT22;9517;51.174;4.160;2024-03-29T12:15:54;16.90;99.90
18777;DHT22;9517;51.174;4.160;2024-03-29T12:18:24;16.70;99.90
18777;DHT22;9517;51.174;4.160;2024-03-29T12:20:52;16.50;99.90
18777;DHT22;9517;51.174;4.160;2024-03-29T12:23:20;16.80;99.90
18777;DHT22;9517;51.174;4.160;2024-03-29T12:25:49;16.80;99.90
18777;DHT22;9517;51.174;4.160;2024-03-29T12:28:17;16.60;99.90
18777;DHT22;9517;51.174;4.160;2024-03-29T12:30:45;16.30;99.90
18777;DHT22;9517;51.174;4.160;2024-03-29T12:33:13;16.30;99.90
18777;DHT22;9517;51.174;4.160;2024-03-29T12:35:43;16.40;99.90
18777;DHT22;9517;51.174;4.160;2024-03-29T12:38:12;16.20;99.90
18777;DHT22;9517;51.174;4.160;2024-03-29T12:40:41;16.30;99.90
18777;DHT22;9517;51.174;4.160;2024-03-29T12:43:10;16.40;99.90
18777;DHT22;9517;51.174;4.160;2024-03-29T12:45:39;16.40;99.90
18777;DHT22;9517;51.174;4.160;2024-03-29T12:48:10;16.70;99.90
18777;DHT22;9517;51.174;4.160;2024-03-29T12:50:40;16.40;99.90
18777;DHT22;9517;51.174;4.160;2024-03-29T12:53:10;16.30;99.90
18777;DHT22;9517;51.174;4.160;2024-03-29T12:55:41;16.60;99.90
18777;DHT22;9517;51.174;4.160;2024-03-29T12:58:11;16.90;99.90
18777;DHT22;9517;51.174;4.160;2024-03-29T13:00:43;17.20;99.90
18777;DHT22;9517;51.174;4.160;2024-03-29T13:03:11;17.50;99.90
18777;DHT22;9517;51.174;4.160;2024-03-29T13:05:39;18.40;99.90
18777;DHT22;9517;51.174;4.160;2024-03-29T13:08:09;19.30;99.90
18777;DHT22;9517;51.174;4.160;2024-03-29T13:10:37;19.10;99.90
18777;DHT22;9517;51.174;4.160;2024-03-29T13:13:05;18.30;99.90
18777;DHT22;9517;51.174;4.160;2024-03-29T13:15:33;17.30;99.90
18777;DHT22;9517;51.174;4.160;2024-03-29T13:18:01;17.50;99.90
18777;DHT22;9517;51.174;4.160;2024-03-29T13:20:30;17.60;99.90
18777;DHT22;9517;51.174;4.160;2024-03-29T13:22:58;17.70;99.90
18777;DHT22;9517;51.174;4.160;2024-03-29T13:25:27;17.60;99.90
18777;DHT22;9517;51.174;4.160;2024-03-29T13:27:54;17.60;99.90
18777;DHT22;9517;51.174;4.160;2024-03-29T13:30:23;17.10;99.90
18777;DHT22;9517;51.174;4.160;2024-03-29T13:32:51;16.80;99.90
18777;DHT22;9517;51.174;4.160;2024-03-29T13:35:18;16.80;99.90
18777;DHT22;9517;51.174;4.160;2024-03-29T13:37:48;16.70;99.90
18777;DHT22;9517;51.174;4.160;2024-03-29T13:40:16;16.70;99.90
18777;DHT22;9517;51.174;4.160;2024-03-29T13:42:45;16.70;99.90
18777;DHT22;9517;51.174;4.160;2024-03-29T13:45:12;16.40;99.90
18777;DHT22;9517;51.174;4.160;2024-03-29T13:47:40;16.40;99.90
18777;DHT22;9517;51.174;4.160;2024-03-29T13:50:09;16.30;99.90
18777;DHT22;9517;51.174;4.160;2024-03-29T13:52:37;16.80;99.90
18777;DHT22;9517;51.174;4.160;2024-03-29T13:55:05;17.10;99.90
18777;DHT22;9517;51.174;4.160;2024-03-29T13:57:32;16.80;99.90
18777;DHT22;9517;51.174;4.160;2024-03-29T14:00:01;16.70;99.90
18777;DHT22;9517;51.174;4.160;2024-03-29T14:02:31;16.70;99.90
18777;DHT22;9517;51.174;4.160;2024-03-29T14:04:58;16.70;99.90
18777;DHT22;9517;51.174;4.160;2024-03-29T14:07:26;16.90;99.90
18777;DHT22;9517;51.174;4.160;2024-03-29T14:09:53;16.80;99.90
18777;DHT22;9517;51.174;4.160;2024-03-29T14:12:21;17.00;99.90
18777;DHT22;9517;51.174;4.160;2024-03-29T14:14:50;17.30;99.90
18777;DHT22;9517;51.174;4.160;2024-03-29T14:17:20;17.40;99.90
18777;DHT22;9517;51.174;4.160;2024-03-29T14:19:47;16.80;99.90
18777;DHT22;9517;51.174;4.160;2024-03-29T14:22:15;16.20;99.90
18777;DHT22;9517;51.174;4.160;2024-03-29T14:24:45;16.30;99.90
18777;DHT22;9517;51.174;4.160;2024-03-29T14:27:12;16.60;99.90
18777;DHT22;9517;51.174;4.160;2024-03-29T14:29:40;16.40;99.90
18777;DHT22;9517;51.174;4.160;2024-03-29T14:32:10;16.30;99.90
18777;DHT22;9517;51.174;4.160;2024-03-29T14:34:39;16.50;99.90
18777;DHT22;9517;51.174;4.160;2024-03-29T14:37:12;16.50;99.90
18777;DHT22;9517;51.174;4.160;2024-03-29T14:39:42;17.20;99.90
18777;DHT22;9517;51.174;4.160;2024-03-29T14:42:10;17.90;99.90
18777;DHT22;9517;51.174;4.160;2024-03-29T14:44:39;17.80;99.90
18777;DHT22;9517;51.174;4.160;2024-03-29T14:47:07;17.10;99.90
18777;DHT22;9517;51.174;4.160;2024-03-29T14:49:34;16.90;99.90
18777;DHT22;9517;51.174;4.160;2024-03-29T14:52:03;16.70;99.90
18777;DHT22;9517;51.174;4.160;2024-03-29T14:54:30;16.80;99.90
18777;DHT22;9517;51.174;4.160;2024-03-29T14:56:57;16.90;99.90
18777;DHT22;9517;51.174;4.160;2024-03-29T15:19:52;17.40;99.90
18777;DHT22;9517;51.174;4.160;2024-03-29T15:22:28;17.80;99.90
18777;DHT22;9517;51.174;4.160;2024-03-29T15:25:15;17.60;99.90
18777;DHT22;9517;51.174;4.160;2024-03-29T15:27:59;17.30;99.90
18777;DHT22;9517;51.174;4.160;2024-03-29T15:30:44;17.20;99.90
18777;DHT22;9517;51.174;4.160;2024-03-29T15:33:26;17.00;99.90
18777;DHT22;9517;51.174;4.160;2024-03-29T15:35:59;17.00;99.90
18777;DHT22;9517;51.174;4.160;2024-03-29T15:38:27;17.00;99.90
18777;DHT22;9517;51.174;4.160;2024-03-29T15:40:56;16.90;99.90
18777;DHT22;9517;51.174;4.160;2024-03-29T15:43:24;16.90;99.90
18777;DHT22;9517;51.174;4.160;2024-03-29T15:45:52;16.80;99.90
18777;DHT22;9517;51.174;4.160;2024-03-29T15:48:19;16.60;99.90
18777;DHT22;9517;51.174;4.160;2024-03-29T15:50:47;16.30;99.90
18777;DHT22;9517;51.174;4.160;2024-03-29T15:53:16;16.10;99.90
18777;DHT22;9517;51.174;4.160;2024-03-29T15:55:44;16.00;99.90
18777;DHT22;9517;51.174;4.160;2024-03-29T15:58:11;15.90;99.90
18777;DHT22;9517;51.174;4.160;2024-03-29T16:00:39;15.90;99.90
18777;DHT22;9517;51.174;4.160;2024-03-29T16:03:11;15.90;99.90
18777;DHT22;9517;51.174;4.160;2024-03-29T16:05:40;15.60;99.90
18777;DHT22;9517;51.174;4.160;2024-03-29T16:08:08;15.60;99.90
18777;DHT22;9517;51.174;4.160;2024-03-29T16:11:03;15.50;99.90
18777;DHT22;9517;51.174;4.160;2024-03-29T16:13:37;15.70;99.90
18777;DHT22;9517;51.174;4.160;2024-03-29T16:16:07;16.00;99.90
18777;DHT22;9517;51.174;4.160;2024-03-29T16:18:38;16.00;99.90
18777;DHT22;9517;51.174;4.160;2024-03-29T16:21:07;15.90;99.90
18777;DHT22;9517;51.174;4.160;2024-03-29T16:23:38;15.70;99.90
18777;DHT22;9517;51.174;4.160;2024-03-29T16:26:07;15.60;99.90
18777;DHT22;9517;51.174;4.160;2024-03-29T16:28:34;15.60;99.90
18777;DHT22;9517;51.174;4.160;2024-03-29T16:31:01;15.60;99.90
18777;DHT22;9517;51.174;4.160;2024-03-29T16:33:27;15.40;99.90
18777;DHT22;9517;51.174;4.160;2024-03-29T16:35:55;15.40;99.90
18777;DHT22;9517;51.174;4.160;2024-03-29T16:38:22;15.30;99.90
18777;DHT22;9517;51.174;4.160;2024-03-29T16:40:50;15.30;99.90
18777;DHT22;9517;51.174;4.160;2024-03-29T16:49:31;15.30;99.90
18777;DHT22;9517;51.174;4.160;2024-03-29T16:52:27;15.40;99.90
18777;DHT22;9517;51.174;4.160;2024-03-29T16:55:15;15.40;99.90
18777;DHT22;9517;51.174;4.160;2024-03-29T17:04:39;15.10;99.90
18777;DHT22;9517;51.174;4.160;2024-03-29T17:07:23;15.10;99.90
18777;DHT22;9517;51.174;4.160;2024-03-29T17:09:56;15.00;99.90
18777;DHT22;9517;51.174;4.160;2024-03-29T17:20:03;15.20;99.90